createdAt,value
2022-11-20T00:01:40.502Z,98765.90
2022-11-20T00:04:09.752Z,98766.34
2022-11-20T00:06:37.436Z,98771.55
2022-11-20T00:09:06.347Z,98774.15
2022-11-20T00:11:33.926Z,98771.48
2022-11-20T00:14:03.106Z,98771.67
2022-11-20T00:16:32.897Z,98767.70
2022-11-20T00:19:00.694Z,98769.37
2022-11-20T00:21:29.509Z,98768.46
2022-11-20T00:23:58.111Z,98765.27
2022-11-20T00:26:27.373Z,98759.31
2022-11-20T00:28:57.242Z,98756.48
2022-11-20T00:31:25.450Z,98760.48
2022-11-20T00:33:53.591Z,98758.29
2022-11-20T00:36:24.024Z,98760.27
2022-11-20T00:38:56.423Z,98760.16
2022-11-20T00:41:25.351Z,98760.73
2022-11-20T00:43:54.383Z,98761.34
2022-11-20T00:46:24.559Z,98760.55
2022-11-20T00:48:52.478Z,98761.02
2022-11-20T00:51:22.409Z,98753.98
2022-11-20T00:53:50.421Z,98753.33
2022-11-20T00:56:19.971Z,98749.12
2022-11-20T00:58:49.415Z,98744.45
2022-11-20T01:01:19.919Z,98740.98
2022-11-20T01:03:49.451Z,98740.24
2022-11-20T01:06:19.883Z,98742.71
2022-11-20T01:08:48.445Z,98747.39
2022-11-20T01:11:18.986Z,98750.98
2022-11-20T01:13:48.058Z,98752.77
2022-11-20T01:16:39.789Z,98751.83
2022-11-20T01:19:12.198Z,98748.77
2022-11-20T01:21:44.154Z,98747.67
2022-11-20T01:24:14.361Z,98744.77
2022-11-20T01:26:43.719Z,98748.85
2022-11-20T01:29:16.999Z,98749.48
2022-11-20T01:31:45.492Z,98745.48
2022-11-20T01:34:15.071Z,98741.74
2022-11-20T01:36:44.050Z,98737.71
2022-11-20T01:39:15.076Z,98733.09
2022-11-20T01:42:08.382Z,98728.48
2022-11-20T01:44:49.355Z,98730.93
2022-11-20T01:47:39.035Z,98725.68
2022-11-20T01:50:23.219Z,98729.05
2022-11-20T01:52:59.082Z,98730.95
2022-11-20T01:55:30.922Z,98734.14
2022-11-20T01:57:58.812Z,98737.96
2022-11-20T02:00:26.826Z,98739.23
2022-11-20T02:03:04.888Z,98740.09
2022-11-20T02:05:53.131Z,98734.53
2022-11-20T02:08:21.009Z,98735.81
2022-11-20T02:10:48.709Z,98734.02
2022-11-20T02:13:35.450Z,98731.94
2022-11-20T02:16:03.889Z,98731.55
2022-11-20T02:18:31.617Z,98730.53
2022-11-20T02:21:08.358Z,98725.61
2022-11-20T02:23:40.447Z,98725.71
2022-11-20T02:26:10.462Z,98728.63
2022-11-20T02:28:38.475Z,98730.35
2022-11-20T02:31:06.295Z,98728.42
2022-11-20T02:33:33.886Z,98727.70
2022-11-20T02:36:01.646Z,98727.64
2022-11-20T02:38:29.247Z,98726.90
2022-11-20T02:40:56.853Z,98727.58
2022-11-20T02:43:24.485Z,98723.27
2022-11-20T02:45:52.135Z,98723.96
2022-11-20T02:48:19.725Z,98718.27
2022-11-20T02:50:47.383Z,98722.29
2022-11-20T02:53:15.087Z,98719.66
2022-11-20T02:55:42.683Z,98718.80
2022-11-20T02:58:10.302Z,98717.15
2022-11-20T03:00:37.892Z,98720.21
2022-11-20T03:03:05.484Z,98720.23
2022-11-20T03:05:33.211Z,98721.23
2022-11-20T03:08:00.760Z,98721.60
2022-11-20T03:10:28.384Z,98720.39
2022-11-20T03:12:56.560Z,98723.46
2022-11-20T03:15:24.619Z,98720.27
2022-11-20T03:17:56.527Z,98723.04
2022-11-20T03:20:24.391Z,98717.69
2022-11-20T03:22:51.991Z,98714.22
2022-11-20T03:25:19.552Z,98717.17
2022-11-20T03:27:47.160Z,98710.52
2022-11-20T03:30:15.676Z,98710.29
2022-11-20T03:32:43.297Z,98711.70
2022-11-20T03:35:11.078Z,98705.76
2022-11-20T03:37:38.678Z,98705.13
2022-11-20T03:40:07.115Z,98716.80
2022-11-20T03:42:46.749Z,98717.16
2022-11-20T03:45:15.892Z,98721.92
2022-11-20T03:47:44.456Z,98720.65
2022-11-20T03:50:14.099Z,98728.90
2022-11-20T03:52:42.434Z,98731.77
2022-11-20T03:55:10.408Z,98730.78
2022-11-20T03:57:38.075Z,98729.64
2022-11-20T04:00:06.699Z,98728.13
2022-11-20T04:02:34.271Z,98723.09
2022-11-20T04:05:01.868Z,98720.01
2022-11-20T04:07:29.618Z,98718.52
2022-11-20T04:09:57.376Z,98714.38
2022-11-20T04:12:25.075Z,98712.09
2022-11-20T04:14:52.671Z,98715.02
2022-11-20T04:17:20.247Z,98715.00
2022-11-20T04:19:47.828Z,98712.35
2022-11-20T04:22:15.454Z,98709.18
2022-11-20T04:24:43.019Z,98705.84
2022-11-20T04:27:10.592Z,98702.19
2022-11-20T04:29:38.157Z,98695.99
2022-11-20T04:32:05.849Z,98696.23
2022-11-20T04:34:33.551Z,98694.72
2022-11-20T04:37:01.951Z,98693.61
2022-11-20T04:39:29.550Z,98691.09
2022-11-20T04:42:15.983Z,98690.04
2022-11-20T04:44:43.552Z,98690.05
2022-11-20T04:47:11.148Z,98696.60
2022-11-20T04:49:38.750Z,98694.77
2022-11-20T04:52:06.515Z,98690.75
2022-11-20T04:54:34.082Z,98690.48
2022-11-20T04:57:01.651Z,98691.40
2022-11-20T04:59:29.238Z,98688.34
2022-11-20T05:01:57.071Z,98686.56
2022-11-20T05:04:24.898Z,98687.66
2022-11-20T05:06:52.501Z,98684.48
2022-11-20T05:09:20.265Z,98688.05
2022-11-20T05:11:51.439Z,98689.67
2022-11-20T05:14:19.489Z,98685.73
2022-11-20T05:16:47.333Z,98686.55
2022-11-20T05:19:15.037Z,98691.17
2022-11-20T05:21:42.650Z,98696.12
2022-11-20T05:24:10.416Z,98691.13
2022-11-20T05:26:38.043Z,98693.52
2022-11-20T05:29:05.756Z,98688.19
2022-11-20T05:31:33.526Z,98691.06
2022-11-20T05:34:01.187Z,98695.90
2022-11-20T05:36:28.789Z,98694.06
2022-11-20T05:39:01.273Z,98696.83
2022-11-20T05:41:30.715Z,98689.85
2022-11-20T05:43:59.388Z,98689.67
2022-11-20T05:46:29.269Z,98687.54
2022-11-20T05:48:58.951Z,98691.14
2022-11-20T05:51:26.839Z,98689.98
2022-11-20T05:53:56.947Z,98685.95
2022-11-20T05:56:24.550Z,98685.52
2022-11-20T05:58:52.169Z,98683.77
2022-11-20T06:01:22.545Z,98679.76
2022-11-20T06:03:51.654Z,98673.05
2022-11-20T06:06:20.826Z,98675.60
2022-11-20T06:08:48.973Z,98675.17
2022-11-20T06:11:17.721Z,98672.33
2022-11-20T06:13:46.533Z,98676.13
2022-11-20T06:16:16.914Z,98678.02
2022-11-20T06:18:44.505Z,98681.14
2022-11-20T06:21:18.074Z,98679.58
2022-11-20T06:23:46.409Z,98679.80
2022-11-20T06:26:16.724Z,98685.27
2022-11-20T06:28:44.666Z,98686.02
2022-11-20T06:31:14.514Z,98688.02
2022-11-20T06:33:42.745Z,98687.40
2022-11-20T06:36:12.286Z,98687.54
2022-11-20T06:38:40.365Z,98687.59
2022-11-20T06:41:12.091Z,98688.19
2022-11-20T06:43:39.934Z,98685.73
2022-11-20T06:46:07.811Z,98683.14
2022-11-20T06:48:35.384Z,98684.08
2022-11-20T06:51:07.366Z,98681.97
2022-11-20T06:53:35.737Z,98683.35
2022-11-20T06:56:03.857Z,98677.92
2022-11-20T06:58:34.061Z,98676.69
2022-11-20T07:01:03.716Z,98674.04
2022-11-20T07:03:31.800Z,98671.52
2022-11-20T07:06:01.132Z,98672.02
2022-11-20T07:08:29.135Z,98667.08
2022-11-20T07:11:01.181Z,98662.42
2022-11-20T07:13:29.604Z,98654.61
2022-11-20T07:16:01.058Z,98651.23
2022-11-20T07:18:28.714Z,98654.35
2022-11-20T07:20:56.692Z,98655.19
2022-11-20T07:23:24.322Z,98656.66
2022-11-20T07:25:51.924Z,98653.49
2022-11-20T07:28:19.535Z,98654.36
2022-11-20T07:30:53.888Z,98649.33
2022-11-20T07:33:22.042Z,98649.54
2022-11-20T07:35:49.740Z,98644.54
2022-11-20T07:38:17.346Z,98643.05
2022-11-20T07:40:45.118Z,98638.77
2022-11-20T07:43:12.752Z,98632.12
2022-11-20T07:45:40.822Z,98630.80
2022-11-20T07:48:08.410Z,98630.23
2022-11-20T07:50:35.970Z,98634.31
2022-11-20T07:53:05.335Z,98634.02
2022-11-20T07:55:33.280Z,98636.98
2022-11-20T07:58:00.923Z,98635.80
2022-11-20T08:00:28.626Z,98639.36
2022-11-20T08:02:56.444Z,98638.08
2022-11-20T08:05:24.326Z,98633.73
2022-11-20T08:07:51.910Z,98631.36
2022-11-20T08:10:19.744Z,98627.76
2022-11-20T08:13:08.038Z,98620.20
2022-11-20T08:15:36.435Z,98620.19
2022-11-20T08:21:04.459Z,98616.77
2022-11-20T08:23:32.157Z,98606.52
2022-11-20T08:25:59.775Z,98605.93
2022-11-20T08:28:27.361Z,98610.61
2022-11-20T08:30:59.758Z,98608.09
2022-11-20T08:33:27.408Z,98604.21
2022-11-20T08:36:00.031Z,98603.29
2022-11-20T08:38:27.642Z,98604.94
2022-11-20T08:41:21.008Z,98602.68
2022-11-20T08:43:48.619Z,98603.08
2022-11-20T08:46:16.225Z,98602.38
2022-11-20T08:48:44.539Z,98605.47
2022-11-20T08:51:12.920Z,98605.46
2022-11-20T08:53:40.806Z,98607.84
2022-11-20T08:56:10.451Z,98607.59
2022-11-20T08:59:01.931Z,98603.86
2022-11-20T09:01:27.523Z,98600.95
2022-11-20T09:03:58.716Z,98602.26
2022-11-20T09:06:26.758Z,98596.09
2022-11-20T09:08:54.809Z,98598.52
2022-11-20T09:11:22.829Z,98590.90
2022-11-20T09:13:50.555Z,98591.00
2022-11-20T09:16:18.204Z,98589.77
2022-11-20T09:18:45.823Z,98585.83
2022-11-20T09:21:14.891Z,98590.65
2022-11-20T09:23:42.568Z,98594.29
2022-11-20T09:26:11.864Z,98593.60
2022-11-20T09:28:39.982Z,98595.55
2022-11-20T09:31:22.870Z,98591.81
2022-11-20T09:33:50.977Z,98588.76
2022-11-20T09:36:19.670Z,98586.64
2022-11-20T09:38:47.705Z,98582.02
2022-11-20T09:41:18.434Z,98579.00
2022-11-20T09:43:51.656Z,98576.70
2022-11-20T09:46:38.073Z,98573.02
2022-11-20T09:49:30.690Z,98570.85
2022-11-20T09:52:27.888Z,98573.95
2022-11-20T09:54:56.036Z,98572.99
2022-11-20T09:57:36.741Z,98572.57
2022-11-20T10:00:06.662Z,98573.52
2022-11-20T10:02:53.808Z,98569.70
2022-11-20T10:05:26.122Z,98567.35
2022-11-20T10:08:10.724Z,98560.04
2022-11-20T10:10:53.594Z,98559.61
2022-11-20T10:13:47.571Z,98558.78
2022-11-20T10:16:44.376Z,98556.80
2022-11-20T10:19:33.741Z,98557.29
2022-11-20T10:22:16.788Z,98558.63
2022-11-20T10:25:05.637Z,98563.30
2022-11-20T10:28:11.360Z,98562.25
2022-11-20T10:30:42.817Z,98555.56
2022-11-20T10:33:17.420Z,98553.86
2022-11-20T10:36:22.349Z,98542.45
2022-11-20T10:38:55.229Z,98544.37
2022-11-20T10:41:30.870Z,98549.84
2022-11-20T10:44:42.402Z,98554.84
2022-11-20T10:47:15.170Z,98551.86
2022-11-20T10:49:44.652Z,98552.15
2022-11-20T10:52:17.375Z,98545.27
2022-11-20T10:55:11.334Z,98540.50
2022-11-20T10:57:53.622Z,98536.42
2022-11-20T11:00:21.221Z,98533.52
2022-11-20T11:02:54.188Z,98531.86
2022-11-20T11:05:41.152Z,98531.07
2022-11-20T11:08:15.460Z,98532.21
2022-11-20T11:10:49.075Z,98533.23
2022-11-20T11:13:28.300Z,98530.73
2022-11-20T11:15:56.470Z,98531.81
2022-11-20T11:18:32.669Z,98529.89
2022-11-20T11:21:03.050Z,98524.58
2022-11-20T11:23:35.353Z,98521.83
2022-11-20T11:26:05.776Z,98519.40
2022-11-20T11:28:34.271Z,98516.23
2022-11-20T11:31:02.017Z,98516.16
2022-11-20T11:33:32.514Z,98510.81
2022-11-20T11:36:19.252Z,98508.66
2022-11-20T11:38:46.859Z,98512.16
2022-11-20T11:41:19.067Z,98510.58
2022-11-20T11:44:17.460Z,98508.16
2022-11-20T11:46:51.158Z,98501.48
2022-11-20T11:49:20.368Z,98497.40
2022-11-20T11:52:02.278Z,98497.81
2022-11-20T11:54:52.538Z,98500.02
2022-11-20T11:57:52.963Z,98500.66
2022-11-20T12:00:22.139Z,98497.98
2022-11-20T12:02:58.583Z,98498.12
2022-11-20T12:05:44.231Z,98497.73
2022-11-20T12:08:25.468Z,98497.84
2022-11-20T12:11:07.706Z,98495.45
2022-11-20T12:13:35.240Z,98490.92
2022-11-20T12:16:04.207Z,98487.27
2022-11-20T12:18:32.647Z,98486.42
2022-11-20T12:21:21.397Z,98490.05
2022-11-20T12:24:02.850Z,98482.70
2022-11-20T12:26:45.823Z,98483.33
2022-11-20T12:29:46.053Z,98477.45
2022-11-20T12:32:16.416Z,98474.82
2022-11-20T12:35:11.283Z,98471.81
2022-11-20T12:37:51.120Z,98463.80
2022-11-20T12:40:25.268Z,98462.08
2022-11-20T12:43:36.496Z,98460.65
2022-11-20T12:46:42.153Z,98461.69
2022-11-20T12:49:31.297Z,98455.44
2022-11-20T12:52:05.936Z,98452.30
2022-11-20T12:54:57.863Z,98447.34
2022-11-20T12:57:51.095Z,98441.38
2022-11-20T13:00:23.424Z,98443.67
2022-11-20T13:03:00.398Z,98439.36
2022-11-20T13:05:52.487Z,98436.52
2022-11-20T13:08:26.607Z,98431.48
2022-11-20T13:11:20.010Z,98432.48
2022-11-20T13:14:12.517Z,98434.65
2022-11-20T13:16:51.352Z,98425.64
2022-11-20T13:19:19.316Z,98420.40
2022-11-20T13:21:52.450Z,98416.39
2022-11-20T13:24:20.464Z,98416.52
2022-11-20T13:26:48.355Z,98417.48
2022-11-20T13:29:20.082Z,98417.19
2022-11-20T13:31:49.133Z,98414.34
2022-11-20T13:34:26.861Z,98406.54
2022-11-20T13:36:57.459Z,98407.77
2022-11-20T13:39:29.710Z,98406.95
2022-11-20T13:42:21.834Z,98403.32
2022-11-20T13:44:55.128Z,98404.15
2022-11-20T13:47:28.003Z,98401.34
2022-11-20T13:50:00.424Z,98398.40
2022-11-20T13:53:10.600Z,98399.40
2022-11-20T13:55:52.973Z,98394.63
2022-11-20T13:58:52.530Z,98400.10
2022-11-20T14:01:25.317Z,98398.02
2022-11-20T14:04:09.356Z,98395.50
2022-11-20T14:06:45.208Z,98394.43
2022-11-20T14:09:14.836Z,98397.16
2022-11-20T14:11:48.906Z,98395.44
2022-11-20T14:14:22.234Z,98392.89
2022-11-20T14:16:51.033Z,98394.81
2022-11-20T14:19:21.458Z,98394.48
2022-11-20T14:21:54.596Z,98392.94
2022-11-20T14:24:24.969Z,98389.90
2022-11-20T14:26:53.390Z,98386.02
2022-11-20T14:29:24.903Z,98388.20
2022-11-20T14:31:54.508Z,98394.99
2022-11-20T14:34:26.665Z,98384.13
2022-11-20T14:37:00.048Z,98383.02
2022-11-20T14:39:33.021Z,98382.04
2022-11-20T14:42:00.902Z,98378.25
2022-11-20T14:44:33.299Z,98377.04
2022-11-20T14:47:03.044Z,98377.86
2022-11-20T14:49:32.168Z,98379.02
2022-11-20T14:52:11.658Z,98376.81
2022-11-20T14:54:50.646Z,98379.14
2022-11-20T14:57:24.546Z,98375.83
2022-11-20T14:59:52.833Z,98376.69
2022-11-20T15:02:20.466Z,98371.23
2022-11-20T15:04:58.239Z,98362.92
2022-11-20T15:07:31.743Z,98362.23
2022-11-20T15:10:19.396Z,98357.73
2022-11-20T15:12:52.749Z,98351.91
2022-11-20T15:15:31.219Z,98354.23
2022-11-20T15:17:59.407Z,98350.66
2022-11-20T15:20:30.568Z,98343.11
2022-11-20T15:22:58.235Z,98340.98
2022-11-20T15:25:26.251Z,98343.77
2022-11-20T15:27:57.043Z,98341.02
2022-11-20T15:30:25.026Z,98341.25
2022-11-20T15:32:52.814Z,98334.54
2022-11-20T15:35:20.521Z,98339.98
2022-11-20T15:37:48.108Z,98341.81
2022-11-20T15:40:15.810Z,98342.63
2022-11-20T15:43:06.797Z,98343.35
2022-11-20T15:45:44.715Z,98340.48
2022-11-20T15:48:15.407Z,98342.57
2022-11-20T15:50:52.354Z,98336.31
2022-11-20T15:53:20.044Z,98336.23
2022-11-20T15:55:47.699Z,98335.09
2022-11-20T15:58:15.672Z,98335.86
2022-11-20T16:00:43.803Z,98334.16
2022-11-20T16:03:15.581Z,98335.14
2022-11-20T16:05:43.367Z,98334.35
2022-11-20T16:08:11.937Z,98337.64
2022-11-20T16:10:40.818Z,98333.02
2022-11-20T16:13:32.861Z,98327.13
2022-11-20T16:16:05.834Z,98325.83
2022-11-20T16:18:34.106Z,98326.73
2022-11-20T16:21:02.088Z,98325.13
2022-11-20T16:23:29.842Z,98328.39
2022-11-20T16:25:57.400Z,98328.25
2022-11-20T16:28:25.635Z,98327.14
2022-11-20T16:30:53.222Z,98328.63
2022-11-20T16:33:20.795Z,98326.58
2022-11-20T16:35:48.618Z,98327.70
2022-11-20T16:38:16.224Z,98326.79
2022-11-20T16:40:43.825Z,98323.81
2022-11-20T16:43:12.284Z,98321.82
2022-11-20T16:45:43.973Z,98319.16
2022-11-20T16:48:16.180Z,98320.73
2022-11-20T16:50:49.692Z,98324.56
2022-11-20T16:53:18.936Z,98322.77
2022-11-20T16:55:47.222Z,98320.29
2022-11-20T16:58:15.796Z,98319.56
2022-11-20T17:00:48.353Z,98315.95
2022-11-20T17:03:17.711Z,98310.89
2022-11-20T17:05:45.282Z,98311.23
2022-11-20T17:08:12.912Z,98316.83
2022-11-20T17:10:40.620Z,98314.27
2022-11-20T17:13:08.206Z,98313.85
2022-11-20T17:15:35.773Z,98310.38
2022-11-20T17:18:03.567Z,98309.65
2022-11-20T17:20:32.506Z,98304.68
2022-11-20T17:23:00.114Z,98300.45
2022-11-20T17:25:27.692Z,98297.21
2022-11-20T17:27:55.625Z,98296.60
2022-11-20T17:30:23.277Z,98291.64
2022-11-20T17:32:50.884Z,98291.39
2022-11-20T17:35:18.477Z,98285.98
2022-11-20T17:37:46.059Z,98287.26
2022-11-20T17:40:13.726Z,98285.65
2022-11-20T17:42:41.636Z,98284.18
2022-11-20T17:45:09.280Z,98272.41
2022-11-20T17:47:39.534Z,98267.15
2022-11-20T17:50:07.723Z,98265.85
2022-11-20T17:52:35.639Z,98267.20
2022-11-20T17:55:03.356Z,98266.90
2022-11-20T17:57:49.647Z,98260.78
2022-11-20T18:00:18.183Z,98256.91
2022-11-20T18:02:46.064Z,98259.35
2022-11-20T18:05:13.788Z,98256.58
2022-11-20T18:07:42.117Z,98255.80
2022-11-20T18:10:10.329Z,98248.22
2022-11-20T18:12:38.011Z,98252.14
2022-11-20T18:15:05.879Z,98253.23
2022-11-20T18:17:33.890Z,98250.34
2022-11-20T18:20:27.159Z,98250.75
2022-11-20T18:22:49.098Z,98252.04
2022-11-20T18:25:16.828Z,98246.64
2022-11-20T18:27:45.243Z,98244.55
2022-11-20T18:30:13.565Z,98242.67
2022-11-20T18:32:41.213Z,98239.80
2022-11-20T18:35:09.315Z,98240.30
2022-11-20T18:37:36.942Z,98239.33
2022-11-20T18:40:04.894Z,98239.55
2022-11-20T18:42:51.102Z,98235.66
2022-11-20T18:45:18.669Z,98234.05
2022-11-20T18:47:46.284Z,98235.96
2022-11-20T18:50:13.852Z,98236.98
2022-11-20T18:52:44.527Z,98233.05
2022-11-20T18:55:12.923Z,98238.65
2022-11-20T18:57:40.970Z,98241.86
2022-11-20T19:00:10.110Z,98239.64
2022-11-20T19:02:42.033Z,98241.11
2022-11-20T19:05:12.617Z,98243.04
2022-11-20T19:07:40.930Z,98238.70
2022-11-20T19:13:28.667Z,98232.64
2022-11-20T19:16:03.411Z,98234.17
2022-11-20T19:18:32.182Z,98238.34
2022-11-20T19:21:15.318Z,98233.28
2022-11-20T19:23:43.576Z,98230.31
2022-11-20T19:26:11.200Z,98230.70
2022-11-20T19:28:39.553Z,98228.22
2022-11-20T19:31:10.226Z,98233.11
2022-11-20T19:33:38.465Z,98234.16
2022-11-20T19:36:15.587Z,98234.67
2022-11-20T19:38:49.831Z,98228.76
2022-11-20T19:41:20.138Z,98226.54
2022-11-20T19:43:49.910Z,98228.86
2022-11-20T19:46:18.791Z,98224.84
2022-11-20T19:48:46.813Z,98225.48
2022-11-20T19:51:16.958Z,98225.97
2022-11-20T19:53:44.731Z,98230.47
2022-11-20T19:56:12.446Z,98228.42
2022-11-20T19:58:40.397Z,98231.70
2022-11-20T20:01:11.844Z,98227.92
2022-11-20T20:03:40.088Z,98230.93
2022-11-20T20:06:10.567Z,98229.79
2022-11-20T20:08:38.157Z,98232.18
2022-11-20T20:11:17.908Z,98231.65
2022-11-20T20:13:47.256Z,98230.56
2022-11-20T20:16:17.679Z,98232.88
2022-11-20T20:18:45.623Z,98232.00
2022-11-20T20:21:15.458Z,98234.74
2022-11-20T20:23:44.098Z,98235.13
2022-11-20T20:26:12.421Z,98234.70
2022-11-20T20:28:40.263Z,98234.90
2022-11-20T20:31:10.126Z,98231.95
2022-11-20T20:33:39.507Z,98231.70
2022-11-20T20:36:09.004Z,98233.27
2022-11-20T20:38:36.580Z,98233.16
2022-11-20T20:41:04.659Z,98231.17
2022-11-20T20:43:52.240Z,98232.90
2022-11-20T20:46:20.563Z,98234.31
2022-11-20T20:48:54.042Z,98232.81
2022-11-20T20:51:23.127Z,98237.66
2022-11-20T20:53:51.084Z,98237.64
2022-11-20T20:56:18.739Z,98237.48
2022-11-20T20:58:46.358Z,98232.85
2022-11-20T21:01:15.748Z,98223.11
2022-11-20T21:03:43.483Z,98217.75
2022-11-20T21:06:11.769Z,98216.38
2022-11-20T21:08:41.132Z,98211.71
2022-11-20T21:11:12.483Z,98207.77
2022-11-20T21:13:42.779Z,98203.70
2022-11-20T21:16:11.882Z,98204.30
2022-11-20T21:18:39.484Z,98204.63
2022-11-20T21:21:27.495Z,98207.08
2022-11-20T21:23:55.159Z,98207.84
2022-11-20T21:26:22.839Z,98206.08
2022-11-20T21:28:50.557Z,98203.98
2022-11-20T21:31:22.119Z,98207.72
2022-11-20T21:33:51.115Z,98209.38
2022-11-20T21:36:20.692Z,98208.36
2022-11-20T21:38:49.080Z,98211.47
2022-11-20T21:41:16.719Z,98211.95
2022-11-20T21:43:44.467Z,98214.88
2022-11-20T21:46:14.159Z,98215.77
2022-11-20T21:48:43.155Z,98216.89
2022-11-20T21:51:13.118Z,98221.16
2022-11-20T21:53:41.270Z,98222.87
2022-11-20T21:56:10.407Z,98224.04
2022-11-20T21:58:39.204Z,98222.63
2022-11-20T22:01:15.987Z,98219.19
2022-11-20T22:03:47.067Z,98219.61
2022-11-20T22:06:14.763Z,98218.27
2022-11-20T22:08:42.775Z,98222.20
2022-11-20T22:11:14.748Z,98227.02
2022-11-20T22:14:01.390Z,98226.36
2022-11-20T22:16:29.291Z,98228.77
2022-11-20T22:18:57.740Z,98227.95
2022-11-20T22:21:27.397Z,98227.22
2022-11-20T22:23:55.615Z,98228.13
2022-11-20T22:26:25.441Z,98230.41
2022-11-20T22:28:55.039Z,98233.58
2022-11-20T22:31:24.903Z,98237.54
2022-11-20T22:33:52.618Z,98239.36
2022-11-20T22:36:22.220Z,98237.98
2022-11-20T22:38:50.032Z,98237.91
2022-11-20T22:41:22.755Z,98239.61
2022-11-20T22:43:56.555Z,98242.22
2022-11-20T22:46:25.343Z,98247.29
2022-11-20T22:48:54.997Z,98254.05
2022-11-20T22:51:25.247Z,98260.88
2022-11-20T22:53:53.288Z,98261.52
2022-11-20T22:56:21.735Z,98256.41
2022-11-20T22:58:51.913Z,98254.35
2022-11-20T23:01:22.032Z,98250.27
2022-11-20T23:03:51.292Z,98245.89
2022-11-20T23:06:20.042Z,98242.62
2022-11-20T23:08:48.418Z,98232.68
2022-11-20T23:11:18.467Z,98232.05
2022-11-20T23:13:46.556Z,98232.77
2022-11-20T23:16:16.745Z,98234.32
2022-11-20T23:18:44.613Z,98239.65
2022-11-20T23:21:17.914Z,98242.54
2022-11-20T23:23:49.984Z,98241.55
2022-11-20T23:26:19.665Z,98246.25
2022-11-20T23:28:47.685Z,98240.47
2022-11-20T23:31:16.190Z,98236.77
2022-11-20T23:33:45.770Z,98237.20
2022-11-20T23:36:13.815Z,98234.83
2022-11-20T23:38:41.798Z,98234.46
2022-11-20T23:41:09.432Z,98236.43
2022-11-20T23:43:37.168Z,98234.84
2022-11-20T23:46:05.761Z,98239.17
2022-11-20T23:48:35.890Z,98241.17
2022-11-20T23:51:04.959Z,98244.91
2022-11-20T23:53:32.935Z,98244.13
2022-11-20T23:56:02.554Z,98245.05
2022-11-20T23:58:32.827Z,98250.14
